Terminal Aerodrome Forecast
Issued by NWS Shreveport, LA

Home | Current Version | Previous Version | Text Only | Print | Product List | Glossary On
Versions: 1 2 3 4 5 6 7 8 9 10 11 12 13 14 15 16
000
FTUS44 KSHV 012300 RRA
TAFLFK
TAF
KLFK 012342Z 0200/0224 VRB04KT P6SM OVC014
     FM020600 VRB03KT 6SM BR OVC008
     FM021000 VRB03KT 4SM BR OVC008
      TEMPO 0210/0214 2SM BR OVC005
     FM021500 02006KT P6SM OVC013
     FM022000 02007KT P6SM BKN023=

USA.gov is the U.S. government's official web portal to all federal, state and local government web resources and services.